Portada
METAR-TAF:

METAR-TAF

Aeroports :

Shenandoah Municipal Airport

Shenandoah, Iowa, Estats Units d'Amèrica

latitud: 40-45N, longitud: 095-25W, altitud: 296 m

Observació

L'informe es va fer fa 24 minuts, a les 03:15 UTC
Vent 14 kt del Sud-Est
Temperatura 3°C
Humitat 93%
Pressió 1018 hPa
Visibilitat: 14.5 km
Escasses núvols a una alçada de 2600 ft
Cel cobert a una alçada de 3400 ft
(lleu) desconegut

METAR: KSDA 240315Z AUTO 13014KT 9SM -UP FEW026 OVC034 03/02 A3005 RMK AO2

Hora: 21:39 (03:39 UTC)


TAF: manca

Observacions i pronòstics meteorològics de més de 4000 aeroports (METAR i TAF).

Les estacions disponibles són els punts grocs i vermells al mapa.

Posi el ratolí al punt desitjat per veure el nom de l'estació.

Feu clic per veure les observacions i els pronòstics meteorològics.

Per canviar el mapa: feu clic els botons verds amb una creu de color negre per apropar; al botó verd amb un guió per allunyar la imatge; o en les fletxes verdes per a mapes adjacents.


METAR-TAF: